Charter Quote
Worldwide +1-877-727-2538 Call
Select Language Lang
SAFETY RELIABILITY EXPERIENCE

Private Jet Charter Services - Lijiang Airport (ZPLJ)

Paramount Business Jets offers private jet charter flights and luxury airliner charters to and from Lijiang Airport.

AIRPORT INFORMATION
ICAOZPLJ
LOCATIONLijiang, China
FACILITY TYPEAIRPORT

At Paramount Business Jets you can hire chartered private jets to and from Lijiang Airport with as little as 4 hours of notice. All flights booked via Paramount Business Jets are operated by certified direct air carriers that meet and exceed the FAA part 135 and 121 protocol or a foreign equivalent safety authority. Furthermore, Paramount Business Jets subscribes to ARGUS for their third party safety checks of operators, aircraft, and crews prior each and every flight to and from Lijiang Airport and worldwide.

  • Quote a trip using Lijiang Airport or call us 24/7 - 365 days a year at +1-877-727-2538.
Questions? Call +1-877-727-2538

METAR Weather Data at Lijiang Airport, ZPLJ

STATIONZPLJ
OBSERVEDFri Jul 13, 06:00 UTC
NOWMon Oct 21, 21:26 UTC
AGE11175:26 hr ago
WINDW at 9 mph
VISIBILITY16 miles
CLOUDSscattered clouds
TEMP75°F (24°C)
DEWPT61°F (16°C)
HUMIDITY61%
BAROMETER1015 hPa (29.97 in Hg)
METARZPLJ 130600Z 26004MPS 9999 FEW040CB SCT040 SCT083 24/16 Q1015 NOSIG

Call us on +1-877-727-2538 (24 Hours) to Hire a Private Jet or Get a Quick Quote.

Find Airports Near any Location

Processing
...